createdAt,value
2018-11-10T00:03:33.854Z,41.07
2018-11-10T00:08:28.959Z,43.17
2018-11-10T00:13:23.906Z,38.73
2018-11-10T00:18:18.779Z,44.93
2018-11-10T00:23:13.715Z,44.67
2018-11-10T00:28:15.819Z,49.03
2018-11-10T00:33:10.672Z,44.53
2018-11-10T00:38:06.041Z,46.13
2018-11-10T00:43:01.105Z,41.33
2018-11-10T00:53:08.465Z,44.37
2018-11-10T00:58:06.714Z,39.43
2018-11-10T01:03:25.528Z,40.43
2018-11-10T01:08:23.730Z,47.13
2018-11-10T01:13:23.622Z,46.87
2018-11-10T01:18:18.788Z,46.53
2018-11-10T01:23:20.510Z,44.00
2018-11-10T01:28:18.199Z,49.57
2018-11-10T01:33:18.310Z,49.47
2018-11-10T01:38:20.851Z,49.63
2018-11-10T01:43:15.773Z,46.10
2018-11-10T01:53:40.483Z,45.30
2018-11-10T01:58:43.677Z,45.67
2018-11-10T02:03:54.313Z,47.20
2018-11-10T02:18:23.782Z,56.07
2018-11-10T02:23:51.466Z,47.27
2018-11-10T02:40:49.353Z,50.50
2018-11-10T02:46:06.220Z,45.83
2018-11-10T02:51:04.745Z,50.73
2018-11-10T02:56:03.103Z,51.30
2018-11-10T03:01:32.333Z,50.27
2018-11-10T03:06:30.349Z,48.97
2018-11-10T03:11:25.522Z,40.77
2018-11-10T03:16:20.889Z,51.90
2018-11-10T03:21:15.844Z,48.90
2018-11-10T03:26:11.051Z,50.90
2018-11-10T03:31:12.500Z,49.43
2018-11-10T03:41:53.213Z,57.20
2018-11-10T03:47:11.880Z,46.07
2018-11-10T03:52:17.945Z,47.67
2018-11-10T03:57:33.563Z,44.97
2018-11-10T04:02:29.892Z,46.67
2018-11-10T04:07:28.798Z,52.20
2018-11-10T04:12:28.772Z,47.87
2018-11-10T04:17:24.531Z,48.70
2018-11-10T04:22:39.871Z,48.93
2018-11-10T04:27:35.602Z,48.77
2018-11-10T04:38:08.111Z,46.50
2018-11-10T04:43:10.774Z,50.53
2018-11-10T04:53:25.598Z,50.20
2018-11-10T04:58:20.607Z,46.40
2018-11-10T05:03:15.599Z,48.57
2018-11-10T05:08:13.401Z,48.60
2018-11-10T05:13:08.206Z,51.43
2018-11-10T05:18:09.714Z,46.07
2018-11-10T05:23:07.372Z,48.03
2018-11-10T05:28:13.001Z,47.53
2018-11-10T05:33:10.138Z,49.43
2018-11-10T05:38:05.173Z,50.03
2018-11-10T05:43:14.292Z,47.07
2018-11-10T05:48:09.261Z,58.17
2018-11-10T05:53:06.892Z,50.33
2018-11-10T05:58:05.422Z,55.27
2018-11-10T06:03:00.317Z,52.87
2018-11-10T06:07:58.219Z,48.90
2018-11-10T06:12:54.890Z,51.53
2018-11-10T06:17:49.776Z,46.80
2018-11-10T06:22:44.591Z,49.77
2018-11-10T06:27:39.746Z,50.73
2018-11-10T06:32:34.597Z,50.77
2018-11-10T06:37:29.535Z,60.73
2018-11-10T06:42:24.600Z,54.00
2018-11-10T06:47:19.485Z,48.37
2018-11-10T06:52:14.437Z,47.13
2018-11-10T06:57:09.232Z,47.63
2018-11-10T07:02:05.978Z,51.50
2018-11-10T07:07:02.593Z,46.43
2018-11-10T07:17:39.761Z,49.53
2018-11-10T07:23:38.389Z,45.70
2018-11-10T07:34:38.337Z,45.47
2018-11-10T07:55:53.745Z,38.20
2018-11-10T08:00:49.606Z,38.47
2018-11-10T08:05:45.439Z,39.87
2018-11-10T08:10:42.984Z,42.47
2018-11-10T08:15:38.484Z,45.37
2018-11-10T08:20:34.093Z,38.27
2018-11-10T08:25:28.941Z,41.63
2018-11-10T08:30:26.146Z,36.47
2018-11-10T08:35:21.494Z,39.23
2018-11-10T08:40:17.832Z,44.33
2018-11-10T08:45:13.695Z,40.97
2018-11-10T08:50:10.118Z,39.40
2018-11-10T08:55:16.144Z,40.70
2018-11-10T09:00:12.005Z,39.40
2018-11-10T09:05:09.055Z,38.77
2018-11-10T09:10:04.048Z,39.03
2018-11-10T09:14:59.179Z,42.10
2018-11-10T09:19:54.228Z,44.90
2018-11-10T09:24:49.634Z,44.07
2018-11-10T09:29:44.924Z,49.27
2018-11-10T09:34:40.345Z,46.87
2018-11-10T09:39:36.308Z,48.37
2018-11-10T09:44:33.173Z,40.17
2018-11-10T09:49:28.021Z,42.43
2018-11-10T09:54:22.938Z,46.67
2018-11-10T09:59:18.505Z,45.63
2018-11-10T10:04:13.524Z,47.93
2018-11-10T10:09:12.244Z,39.67
2018-11-10T10:14:09.069Z,36.47
2018-11-10T10:19:07.839Z,42.57
2018-11-10T10:33:57.965Z,33.43
2018-11-10T10:39:11.798Z,32.53
2018-11-10T10:44:42.604Z,32.83
2018-11-10T11:48:58.391Z,27.80
2018-11-10T11:53:57.804Z,26.47
2018-11-10T11:58:55.119Z,24.23
2018-11-10T12:03:55.316Z,27.67
2018-11-10T12:08:56.758Z,25.87
2018-11-10T12:13:53.380Z,26.90
2018-11-10T12:18:48.822Z,26.23
2018-11-10T12:23:47.073Z,25.07
2018-11-10T12:28:49.387Z,27.97
2018-11-10T12:33:45.841Z,26.70
2018-11-10T12:38:41.319Z,28.97
2018-11-10T13:01:36.087Z,27.37
2018-11-10T13:06:48.004Z,30.87
2018-11-10T13:28:09.312Z,33.17
2018-11-10T13:38:31.537Z,30.80
2018-11-10T13:43:26.726Z,36.43
2018-11-10T13:48:21.542Z,31.90
2018-11-10T13:53:16.719Z,32.97
2018-11-10T13:58:13.359Z,35.33
2018-11-10T14:03:08.341Z,38.23
2018-11-10T14:08:03.281Z,32.97
2018-11-10T14:12:58.258Z,30.50
2018-11-10T14:17:53.211Z,36.93
2018-11-10T14:22:48.214Z,35.20
2018-11-10T14:27:44.004Z,34.70
2018-11-10T14:32:40.085Z,33.00
2018-11-10T14:37:36.262Z,35.70
2018-11-10T14:42:41.593Z,33.97
2018-11-10T14:54:20.556Z,31.77
2018-11-10T14:59:55.606Z,34.27
2018-11-10T15:05:09.166Z,34.50
2018-11-10T15:10:42.233Z,32.80
2018-11-10T15:16:12.715Z,35.73
2018-11-10T15:21:24.311Z,37.10
2018-11-10T15:26:44.762Z,39.87
2018-11-10T15:31:43.207Z,36.40
2018-11-10T15:36:38.249Z,34.83
2018-11-10T15:41:34.569Z,34.97
2018-11-10T15:46:36.593Z,35.20
2018-11-10T15:56:42.613Z,32.43
2018-11-10T16:01:37.739Z,26.20
2018-11-10T16:06:32.935Z,31.03
2018-11-10T16:11:28.149Z,31.83
2018-11-10T16:31:56.660Z,31.63
2018-11-10T16:37:04.372Z,33.23
2018-11-10T17:52:19.233Z,38.57
2018-11-10T18:07:58.174Z,61.60
2018-11-10T18:12:59.038Z,55.73
2018-11-10T18:17:54.862Z,50.10
2018-11-10T18:22:56.321Z,46.20
2018-11-10T18:32:56.040Z,33.43
2018-11-10T18:37:52.117Z,34.40
2018-11-10T18:42:57.397Z,34.77
2018-11-10T18:47:57.663Z,31.80
2018-11-10T18:52:59.237Z,30.77
2018-11-10T18:58:07.456Z,30.20
2018-11-10T19:03:03.057Z,34.23
2018-11-10T19:08:00.362Z,35.47
2018-11-10T19:12:57.425Z,35.90
2018-11-10T19:17:53.643Z,38.63
2018-11-10T19:22:50.042Z,36.67
2018-11-10T19:33:10.694Z,40.03
2018-11-10T19:38:05.735Z,35.40
2018-11-10T19:43:01.485Z,37.63
2018-11-10T19:47:57.240Z,36.47
2018-11-10T19:52:52.343Z,35.27
2018-11-10T19:57:47.458Z,32.87
2018-11-10T20:02:43.218Z,34.73
2018-11-10T20:07:38.378Z,37.13
2018-11-10T20:12:33.376Z,35.63
2018-11-10T20:17:28.832Z,41.40
2018-11-10T20:22:27.106Z,36.03
2018-11-10T20:27:23.261Z,34.43
2018-11-10T20:32:19.799Z,43.77
2018-11-10T20:37:15.092Z,40.73
2018-11-10T20:42:10.369Z,40.13
2018-11-10T20:47:17.571Z,36.97
2018-11-10T20:52:12.943Z,31.33
2018-11-10T20:57:09.413Z,34.77
2018-11-10T21:02:08.012Z,34.77
2018-11-10T21:07:08.030Z,33.67
2018-11-10T21:12:04.177Z,75.50
2018-11-10T21:17:09.994Z,45.40
2018-11-10T21:22:10.063Z,35.83
2018-11-10T21:27:10.308Z,28.63
2018-11-10T21:32:12.819Z,30.50
2018-11-10T21:37:11.742Z,38.37
2018-11-10T21:42:06.808Z,38.73
2018-11-10T21:47:10.774Z,31.87
2018-11-10T21:52:15.232Z,37.90
2018-11-10T21:57:13.796Z,37.07
2018-11-10T22:02:15.953Z,33.83
2018-11-10T22:07:19.449Z,35.53
2018-11-10T22:12:17.917Z,36.70
2018-11-10T22:17:18.526Z,36.87
2018-11-10T22:22:15.123Z,35.53
2018-11-10T22:27:23.668Z,40.90
2018-11-10T22:32:29.835Z,40.17
2018-11-10T22:44:18.915Z,40.80
2018-11-10T22:49:13.752Z,41.00
2018-11-10T22:54:08.596Z,45.27
2018-11-10T22:59:06.106Z,41.77
2018-11-10T23:04:02.256Z,43.50
2018-11-10T23:08:57.170Z,42.23
2018-11-10T23:13:52.025Z,40.77
2018-11-10T23:18:47.009Z,40.73
2018-11-10T23:23:48.974Z,50.17
2018-11-10T23:28:43.895Z,40.07
2018-11-10T23:33:39.437Z,38.13
2018-11-10T23:38:37.712Z,41.43
2018-11-10T23:43:32.577Z,39.33
2018-11-10T23:48:27.853Z,45.33
2018-11-10T23:53:22.703Z,43.03
2018-11-10T23:58:17.560Z,44.13
